Time;durP1;ratioP1;P1;durP2;ratioP2;P2;SDS_P1;SDS_P2;PMS_P1;PMS_P2;Temp;Humidity;BMP_temperature;BMP_pressure;BME280_temperature;BME280_humidity;BME280_pressure;Samples;Min_cycle;Max_cycle;Signal;HPM_P1;HPM_P2
2020/12/06 00:00:29;;;;;;;1.97;1.57;;;19.70;24.00;;;;;;5093804;28;20290;-51
2020/12/06 00:02:55;;;;;;;1.87;1.77;;;19.60;23.90;;;;;;5076081;28;20631;-51
2020/12/06 00:05:20;;;;;;;1.90;1.70;;;19.60;23.90;;;;;;5093605;28;20154;-51
2020/12/06 00:07:46;;;;;;;1.70;1.60;;;19.60;23.90;;;;;;5076117;28;20162;-51
2020/12/06 00:10:17;;;;;;;1.63;1.53;;;19.70;24.00;;;;;;5093712;28;20600;-51
2020/12/06 00:12:46;;;;;;;2.65;1.52;;;19.60;23.90;;;;;;5094112;28;20158;-51
2020/12/06 00:15:13;;;;;;;1.80;1.70;;;19.60;23.90;;;;;;5093834;28;20150;-51
2020/12/06 00:17:38;;;;;;;1.75;1.65;;;19.60;23.90;;;;;;5093242;28;20194;-51
2020/12/06 00:20:07;;;;;;;2.07;1.93;;;19.60;23.90;;;;;;5075081;28;20537;-51
2020/12/06 00:22:33;;;;;;;2.28;2.05;;;19.60;23.90;;;;;;5094348;28;20153;-51
2020/12/06 00:24:58;;;;;;;1.63;1.30;;;19.60;23.90;;;;;;5093755;28;20207;-51
2020/12/06 00:27:24;;;;;;;2.57;1.73;;;19.60;23.90;;;;;;5093936;28;20172;-51
2020/12/06 00:29:50;;;;;;;2.93;2.00;;;19.60;23.90;;;;;;5093551;28;20314;-51
2020/12/06 00:32:15;;;;;;;1.50;1.40;;;19.60;23.90;;;;;;5093887;28;20165;-50
2020/12/06 00:34:41;;;;;;;2.10;1.90;;;19.60;23.90;;;;;;5093140;28;20158;-51
2020/12/06 00:37:07;;;;;;;2.37;2.03;;;19.60;23.90;;;;;;5093642;28;20623;-51
2020/12/06 00:39:32;;;;;;;2.13;1.50;;;19.60;23.90;;;;;;5093395;28;20193;-51
2020/12/06 00:41:58;;;;;;;1.57;1.47;;;19.60;23.90;;;;;;5075662;28;20540;-51
2020/12/06 00:44:24;;;;;;;1.87;1.73;;;19.60;23.90;;;;;;5093464;28;20150;-51
2020/12/06 00:46:49;;;;;;;1.50;1.40;;;19.60;23.90;;;;;;5093405;28;20184;-51
2020/12/06 00:49:15;;;;;;;2.17;1.93;;;19.60;23.90;;;;;;5093505;28;20162;-51
2020/12/06 00:51:40;;;;;;;2.03;1.83;;;19.60;23.90;;;;;;5075151;28;20272;-52
2020/12/06 00:54:06;;;;;;;3.43;2.00;;;19.60;23.90;;;;;;5093533;28;20162;-50
2020/12/06 00:56:32;;;;;;;1.70;1.60;;;19.60;23.90;;;;;;5075378;28;20609;-51
2020/12/06 00:58:57;;;;;;;2.47;1.80;;;19.60;23.90;;;;;;5093652;28;20281;-51
2020/12/06 01:01:23;;;;;;;2.13;1.93;;;19.60;23.90;;;;;;5093329;28;20692;-51
2020/12/06 01:03:49;;;;;;;1.40;1.30;;;19.60;23.90;;;;;;5075296;28;20636;-51
2020/12/06 01:06:19;;;;;;;1.87;1.67;;;19.60;23.90;;;;;;5057964;28;20169;-51
2020/12/06 01:08:45;;;;;;;2.13;1.73;;;19.60;23.90;;;;;;5093288;28;20162;-50
2020/12/06 01:11:12;;;;;;;1.70;1.60;;;19.60;23.90;;;;;;5093248;28;20162;-51
2020/12/06 01:13:38;;;;;;;1.70;1.60;;;19.60;23.90;;;;;;5093284;28;20208;-51
2020/12/06 01:16:04;;;;;;;1.70;1.60;;;19.60;23.90;;;;;;5074983;28;20637;-50
2020/12/06 01:18:29;;;;;;;1.80;1.70;;;19.50;23.40;;;;;;5093255;28;20450;-51
2020/12/06 01:20:55;;;;;;;1.80;1.70;;;19.50;23.90;;;;;;5092567;28;20162;-51
2020/12/06 01:23:22;;;;;;;2.27;2.07;;;19.50;24.40;;;;;;5093337;28;20154;-51
2020/12/06 01:25:48;;;;;;;1.60;1.50;;;19.50;24.20;;;;;;5075316;28;20203;-51
2020/12/06 01:28:13;;;;;;;2.10;1.90;;;19.60;24.50;;;;;;5095312;28;20172;-51
2020/12/06 01:30:39;;;;;;;1.83;1.73;;;19.50;24.50;;;;;;5096831;28;20555;-52
2020/12/06 01:33:05;;;;;;;2.03;1.83;;;19.50;23.90;;;;;;5096911;28;20671;-51
2020/12/06 01:35:30;;;;;;;1.53;1.43;;;19.50;23.90;;;;;;5078603;28;20172;-51
2020/12/06 01:37:56;;;;;;;1.60;1.50;;;19.50;23.80;;;;;;5096489;28;20185;-51
2020/12/06 01:40:21;;;;;;;2.10;1.90;;;19.50;23.90;;;;;;5096486;28;20177;-51
2020/12/06 01:42:47;;;;;;;2.10;1.80;;;19.50;23.90;;;;;;5078521;28;20487;-51
2020/12/06 01:45:13;;;;;;;2.30;2.03;;;19.50;23.80;;;;;;5078380;28;20173;-51
2020/12/06 01:47:38;;;;;;;2.40;2.03;;;19.50;23.90;;;;;;5096635;28;20162;-51
2020/12/06 01:50:04;;;;;;;1.93;1.53;;;19.50;23.90;;;;;;5061098;28;20201;-51
2020/12/06 01:52:30;;;;;;;2.90;2.30;;;19.50;24.40;;;;;;5096787;28;20239;-51
2020/12/06 01:54:57;;;;;;;1.77;1.67;;;19.50;25.90;;;;;;5096439;28;20411;-51
2020/12/06 01:57:23;;;;;;;1.73;1.63;;;19.50;26.20;;;;;;5096356;28;20164;-51
2020/12/06 01:59:49;;;;;;;1.60;1.40;;;19.50;26.30;;;;;;5096250;28;20512;-52
2020/12/06 02:02:15;;;;;;;2.30;1.83;;;19.50;26.80;;;;;;5078206;28;20225;-51
2020/12/06 02:04:41;;;;;;;1.55;1.45;;;19.50;26.80;;;;;;5077586;28;20249;-51
2020/12/06 02:07:07;;;;;;;1.50;1.40;;;19.50;27.20;;;;;;5096252;28;20243;-51
2020/12/06 02:09:32;;;;;;;1.50;1.40;;;19.60;27.70;;;;;;5096251;28;20712;-51
2020/12/06 02:11:59;;;;;;;1.93;1.70;;;19.60;27.60;;;;;;5096092;28;20597;-51
2020/12/06 02:14:25;;;;;;;2.28;1.45;;;19.50;27.70;;;;;;5096162;28;20168;-51
2020/12/06 02:16:55;;;;;;;1.23;1.13;;;19.50;26.20;;;;;;5096007;28;20157;-51
2020/12/06 02:19:21;;;;;;;1.60;1.40;;;19.50;25.90;;;;;;5095897;28;20198;-51
2020/12/06 02:21:46;;;;;;;1.38;1.27;;;19.60;26.00;;;;;;5095551;28;20169;-51
2020/12/06 02:24:14;;;;;;;1.80;1.53;;;19.60;25.90;;;;;;5077928;28;20158;-51
2020/12/06 02:26:48;;;;;;;3.53;1.52;;;19.60;26.20;;;;;;5095754;28;20153;-51
2020/12/06 02:29:15;;;;;;;1.60;1.50;;;19.60;26.30;;;;;;5095931;28;20156;-51
2020/12/06 02:31:41;;;;;;;1.50;1.40;;;19.60;26.30;;;;;;5095752;28;20184;-51
2020/12/06 02:34:08;;;;;;;2.15;1.90;;;19.60;26.40;;;;;;5095761;28;20200;-51
2020/12/06 02:36:34;;;;;;;1.45;1.35;;;19.60;26.40;;;;;;5077035;28;20162;-51
2020/12/06 02:39:00;;;;;;;1.65;1.50;;;19.70;26.30;;;;;;5095022;28;20197;-51
2020/12/06 02:41:43;;;;;;;1.23;1.13;;;19.70;26.20;;;;;;5095834;28;20644;-51
2020/12/06 02:44:09;;;;;;;1.30;1.17;;;19.70;26.00;;;;;;5095637;28;20275;-51
2020/12/06 02:46:35;;;;;;;1.90;1.70;;;19.70;26.20;;;;;;5095299;28;20659;-51
2020/12/06 02:49:01;;;;;;;1.80;1.70;;;19.70;26.70;;;;;;5095513;28;20248;-51
2020/12/06 02:51:27;;;;;;;1.77;1.67;;;19.80;26.80;;;;;;5094880;28;20378;-51
2020/12/06 02:53:53;;;;;;;1.70;1.60;;;19.80;23.80;;;;;;5095080;28;20639;-51
2020/12/06 02:56:19;;;;;;;2.03;1.40;;;19.80;23.70;;;;;;5095168;28;20170;-52
2020/12/06 02:58:44;;;;;;;1.83;1.50;;;19.80;24.20;;;;;;5095037;28;20190;-51
2020/12/06 03:01:10;;;;;;;1.90;1.37;;;19.90;23.60;;;;;;5095056;28;20308;-51
2020/12/06 03:03:37;;;;;;;1.50;1.40;;;19.90;23.60;;;;;;5095144;28;20165;-52
2020/12/06 03:06:03;;;;;;;1.40;1.30;;;19.90;23.60;;;;;;5094890;28;20170;-51
2020/12/06 03:08:29;;;;;;;2.30;2.13;;;19.90;23.50;;;;;;5094651;28;20190;-51
2020/12/06 03:10:55;;;;;;;1.50;1.40;;;19.90;23.50;;;;;;5076630;28;20182;-51
2020/12/06 03:13:20;;;;;;;1.55;1.45;;;19.90;23.50;;;;;;5095066;28;20158;-51
2020/12/06 03:15:46;;;;;;;1.77;1.63;;;20.00;23.50;;;;;;5094762;28;20169;-51
2020/12/06 03:18:12;;;;;;;1.70;1.53;;;20.00;23.50;;;;;;5094788;28;20202;-50
2020/12/06 03:20:37;;;;;;;2.20;1.60;;;20.00;23.40;;;;;;5094216;28;20236;-52
2020/12/06 03:23:03;;;;;;;1.50;1.40;;;20.00;23.40;;;;;;5076498;28;20621;-51
2020/12/06 03:25:28;;;;;;;1.50;1.40;;;20.10;23.40;;;;;;5094424;28;20150;-52
2020/12/06 03:27:54;;;;;;;1.53;1.27;;;20.10;23.40;;;;;;5094700;28;20162;-52
2020/12/06 03:30:20;;;;;;;1.33;1.20;;;20.10;23.30;;;;;;5094539;28;20713;-52
2020/12/06 03:32:45;;;;;;;1.37;1.27;;;20.10;23.30;;;;;;5094966;28;20162;-52
2020/12/06 03:35:11;;;;;;;2.10;1.40;;;20.10;23.30;;;;;;5093968;28;20629;-52
2020/12/06 03:37:36;;;;;;;3.40;2.07;;;20.10;23.30;;;;;;5094457;28;20648;-51
2020/12/06 03:40:03;;;;;;;1.40;1.30;;;20.20;23.30;;;;;;5094318;28;20220;-51
2020/12/06 03:42:29;;;;;;;1.60;1.50;;;20.20;23.30;;;;;;5076333;28;20655;-51
2020/12/06 03:44:55;;;;;;;1.50;1.40;;;20.20;23.30;;;;;;5094326;28;20186;-52
2020/12/06 03:47:22;;;;;;;1.63;1.53;;;20.20;23.30;;;;;;5076514;28;20556;-52
2020/12/06 03:49:47;;;;;;;1.33;1.23;;;20.20;23.30;;;;;;5093719;28;20150;-51
2020/12/06 03:52:13;;;;;;;1.40;1.30;;;20.20;23.20;;;;;;5093122;28;20165;-51
2020/12/06 03:54:38;;;;;;;2.73;1.07;;;20.20;23.20;;;;;;5075890;28;20172;-51
2020/12/06 03:57:04;;;;;;;1.40;1.30;;;20.20;23.20;;;;;;5094229;28;20513;-51
2020/12/06 03:59:30;;;;;;;1.40;1.27;;;20.20;23.20;;;;;;5076238;28;20273;-51
2020/12/06 04:01:55;;;;;;;1.57;1.47;;;20.20;23.20;;;;;;5076003;28;20214;-51
2020/12/06 04:04:21;;;;;;;1.43;1.10;;;20.20;23.20;;;;;;5094166;28;20160;-51
2020/12/06 04:06:47;;;;;;;1.50;1.30;;;20.20;23.10;;;;;;5093557;28;20185;-51
2020/12/06 04:09:13;;;;;;;1.50;1.40;;;20.20;23.10;;;;;;5076027;28;20234;-52
2020/12/06 04:11:38;;;;;;;1.20;1.10;;;20.20;23.10;;;;;;5094043;28;20248;-51
2020/12/06 04:14:04;;;;;;;1.60;1.40;;;20.30;23.20;;;;;;5094016;28;20460;-51
2020/12/06 04:16:29;;;;;;;1.90;1.37;;;20.30;23.20;;;;;;5093743;28;20161;-52
2020/12/06 04:18:55;;;;;;;1.43;1.33;;;20.30;23.30;;;;;;5075760;28;20631;-52
2020/12/06 04:21:21;;;;;;;1.60;1.50;;;20.30;23.20;;;;;;5093156;28;20674;-52
2020/12/06 04:23:46;;;;;;;1.30;1.20;;;20.30;23.20;;;;;;5075915;28;20154;-52
2020/12/06 04:26:12;;;;;;;1.37;1.27;;;20.30;23.20;;;;;;5093649;28;20164;-51
2020/12/06 04:28:37;;;;;;;1.40;1.30;;;20.30;23.20;;;;;;5075965;28;20487;-52
2020/12/06 04:31:04;;;;;;;1.67;1.40;;;20.30;23.20;;;;;;5093554;28;20168;-52
2020/12/06 04:33:29;;;;;;;1.25;1.15;;;20.30;23.20;;;;;;5093738;28;20162;-52
2020/12/06 04:35:55;;;;;;;2.10;1.43;;;20.30;23.20;;;;;;5092759;28;20482;-51
2020/12/06 04:38:20;;;;;;;1.30;1.20;;;20.30;23.10;;;;;;5075567;28;20645;-52
2020/12/06 04:40:46;;;;;;;1.97;1.70;;;20.30;23.10;;;;;;5075487;28;20182;-52
2020/12/06 04:43:14;;;;;;;1.63;1.50;;;20.30;23.10;;;;;;5093705;28;20165;-52
2020/12/06 04:45:41;;;;;;;1.40;1.30;;;20.30;23.10;;;;;;5093443;28;20411;-51
2020/12/06 04:48:09;;;;;;;2.13;1.63;;;20.40;23.10;;;;;;5093676;28;20179;-51
2020/12/06 04:50:37;;;;;;;1.35;1.25;;;20.40;23.10;;;;;;5093204;28;20240;-52
2020/12/06 04:53:06;;;;;;;1.08;0.98;;;20.40;23.10;;;;;;5093587;28;20162;-52
2020/12/06 04:55:34;;;;;;;1.63;1.52;;;20.40;23.10;;;;;;5093563;28;20184;-52
2020/12/06 04:58:00;;;;;;;1.67;1.58;;;20.40;23.10;;;;;;5093602;28;20310;-51
2020/12/06 05:00:44;;;;;;;1.30;1.20;;;20.50;23.10;;;;;;5093195;28;20292;-52
2020/12/06 05:03:12;;;;;;;3.15;1.40;;;20.50;23.10;;;;;;5095611;28;20158;-51
2020/12/06 05:05:39;;;;;;;1.30;1.20;;;20.50;23.10;;;;;;5078807;28;20241;-52
2020/12/06 05:08:10;;;;;;;1.55;1.10;;;20.50;23.10;;;;;;5097432;28;20150;-52
2020/12/06 05:10:41;;;;;;;1.48;1.38;;;20.50;23.10;;;;;;5097241;28;20160;-51
2020/12/06 05:13:08;;;;;;;1.50;1.40;;;20.50;23.00;;;;;;5097672;28;20158;-51
2020/12/06 05:15:36;;;;;;;2.08;1.50;;;20.50;23.00;;;;;;5096849;28;20161;-51
2020/12/06 05:18:03;;;;;;;1.52;1.42;;;20.50;22.90;;;;;;5097114;28;20213;-51
2020/12/06 05:20:29;;;;;;;1.45;1.30;;;20.60;23.00;;;;;;5096416;28;20245;-51
2020/12/06 05:22:54;;;;;;;1.67;1.57;;;20.60;23.00;;;;;;5078774;28;20237;-50
2020/12/06 05:25:21;;;;;;;1.33;1.23;;;20.60;23.00;;;;;;5096980;28;20158;-52
2020/12/06 05:27:47;;;;;;;1.63;1.40;;;20.60;22.90;;;;;;5078622;28;20177;-51
2020/12/06 05:30:12;;;;;;;1.47;1.10;;;20.60;23.00;;;;;;5096723;28;20150;-51
2020/12/06 05:32:38;;;;;;;1.50;1.20;;;20.60;22.90;;;;;;5096833;28;20711;-53
2020/12/06 05:35:05;;;;;;;1.70;1.50;;;20.60;22.90;;;;;;5095915;28;20874;-52
2020/12/06 05:37:31;;;;;;;1.55;1.30;;;20.70;22.50;;;;;;5096534;28;20171;-51
2020/12/06 05:40:02;;;;;;;1.23;1.13;;;20.70;23.00;;;;;;5096330;28;20260;-51
2020/12/06 05:42:28;;;;;;;1.33;1.20;;;20.70;22.90;;;;;;5096566;28;20150;-51
2020/12/06 05:44:57;;;;;;;1.20;1.10;;;20.70;22.90;;;;;;5096461;28;20517;-51
2020/12/06 05:47:23;;;;;;;1.50;1.40;;;20.70;22.90;;;;;;5096634;28;20161;-51
2020/12/06 05:49:49;;;;;;;1.10;1.00;;;20.70;22.90;;;;;;5095799;28;20152;-51
2020/12/06 05:52:21;;;;;;;1.23;1.10;;;20.70;22.90;;;;;;5078440;28;20154;-51
2020/12/06 05:54:47;;;;;;;1.25;1.00;;;20.70;22.90;;;;;;5096207;28;20178;-51
2020/12/06 05:57:13;;;;;;;4.45;1.50;;;20.70;22.80;;;;;;5096211;28;20166;-51
2020/12/06 05:59:40;;;;;;;1.20;1.10;;;20.70;22.90;;;;;;5096223;28;20671;-51
2020/12/06 06:02:07;;;;;;;1.60;1.50;;;20.70;22.80;;;;;;5096108;28;20288;-51
2020/12/06 06:04:38;;;;;;;1.50;1.40;;;20.70;22.80;;;;;;5078067;28;20180;-51
2020/12/06 06:07:06;;;;;;;1.08;1.08;;;20.70;22.90;;;;;;5096310;28;20158;-51
2020/12/06 06:09:40;;;;;;;1.55;1.33;;;20.70;22.80;;;;;;5096167;28;20582;-51
2020/12/06 06:12:25;;;;;;;1.98;1.33;;;20.70;22.80;;;;;;5096223;28;20158;-51
2020/12/06 06:15:00;;;;;;;0.95;0.93;;;20.70;22.90;;;;;;5095055;28;20245;-51
2020/12/06 06:17:28;;;;;;;1.55;1.45;;;20.70;22.80;;;;;;5095920;28;20149;-51
2020/12/06 06:19:54;;;;;;;1.67;1.58;;;20.70;22.80;;;;;;5095517;28;20166;-51
2020/12/06 06:22:32;;;;;;;1.40;1.30;;;20.70;22.80;;;;;;5096202;28;20626;-51
2020/12/06 06:24:59;;;;;;;1.02;0.93;;;20.70;22.80;;;;;;5095707;28;20400;-51
2020/12/06 06:27:30;;;;;;;1.30;1.20;;;20.70;22.90;;;;;;5096053;28;20249;-52
2020/12/06 06:29:55;;;;;;;1.45;1.35;;;20.70;22.80;;;;;;5095898;28;20154;-52
2020/12/06 06:32:22;;;;;;;1.43;1.33;;;20.70;22.90;;;;;;5095720;28;20554;-52
2020/12/06 06:34:49;;;;;;;1.40;1.30;;;20.70;22.80;;;;;;5095191;28;20181;-51
2020/12/06 06:37:16;;;;;;;1.10;1.00;;;20.70;22.90;;;;;;5095753;28;20237;-51
2020/12/06 06:39:43;;;;;;;1.65;1.55;;;20.70;22.90;;;;;;5095510;28;20510;-51
2020/12/06 06:42:13;;;;;;;1.80;1.70;;;20.70;22.90;;;;;;5095696;28;20216;-52
2020/12/06 06:44:43;;;;;;;1.52;1.42;;;20.70;22.90;;;;;;5095532;28;20157;-52
2020/12/06 06:47:13;;;;;;;1.02;1.00;;;20.70;22.90;;;;;;5077234;28;20185;-52
2020/12/06 06:49:56;;;;;;;1.40;1.30;;;20.70;22.90;;;;;;5094888;28;20158;-52
2020/12/06 06:52:26;;;;;;;1.23;1.13;;;20.70;22.90;;;;;;5095514;28;20150;-52
2020/12/06 06:54:54;;;;;;;1.83;1.30;;;20.70;22.90;;;;;;5095236;28;20158;-52
2020/12/06 06:57:21;;;;;;;1.27;1.17;;;20.70;22.90;;;;;;5095448;28;20151;-52
2020/12/06 06:59:48;;;;;;;1.35;1.25;;;20.70;22.90;;;;;;5095013;28;20162;-52
2020/12/06 07:02:39;;;;;;;1.40;1.30;;;20.70;22.90;;;;;;5094919;28;20227;-52
2020/12/06 07:05:06;;;;;;;1.33;1.23;;;20.70;22.90;;;;;;5076488;28;20166;-52
2020/12/06 07:07:40;;;;;;;1.42;1.33;;;20.70;22.90;;;;;;5076965;28;20617;-52
2020/12/06 07:10:07;;;;;;;0.90;0.90;;;20.70;22.90;;;;;;5094885;28;20158;-51
2020/12/06 07:12:41;;;;;;;1.70;1.48;;;20.80;23.00;;;;;;5095123;28;20257;-51
2020/12/06 07:15:11;;;;;;;2.30;1.55;;;20.80;22.90;;;;;;5076423;28;20173;-52
2020/12/06 07:17:37;;;;;;;1.15;1.05;;;20.80;22.90;;;;;;5094832;28;20154;-52
2020/12/06 07:20:05;;;;;;;1.65;1.55;;;20.80;23.40;;;;;;5076158;28;20245;-51
2020/12/06 07:22:31;;;;;;;1.20;1.10;;;20.80;22.40;;;;;;5094792;28;20224;-52
2020/12/06 07:24:57;;;;;;;1.40;1.30;;;20.80;22.80;;;;;;5094502;28;20150;-51
2020/12/06 07:27:23;;;;;;;1.43;1.17;;;20.80;22.80;;;;;;5076597;28;20208;-52
2020/12/06 07:29:48;;;;;;;1.40;1.27;;;20.80;22.80;;;;;;5094502;28;20161;-52
2020/12/06 07:32:14;;;;;;;1.50;1.40;;;20.90;22.80;;;;;;5076662;28;20199;-51
2020/12/06 07:34:40;;;;;;;1.40;1.30;;;20.90;22.80;;;;;;5094133;28;20164;-52
2020/12/06 07:37:06;;;;;;;2.20;1.13;;;20.90;22.80;;;;;;5076442;28;20922;-52
2020/12/06 07:39:31;;;;;;;1.27;1.17;;;20.90;22.80;;;;;;5094100;28;20200;-51
2020/12/06 07:41:57;;;;;;;1.57;1.47;;;20.90;22.70;;;;;;5094523;28;20814;-53
2020/12/06 07:44:23;;;;;;;1.20;1.10;;;20.90;22.70;;;;;;5094341;28;20154;-51
2020/12/06 07:47:01;;;;;;;1.20;1.10;;;21.00;22.80;;;;;;5076166;28;20158;-51
2020/12/06 07:49:26;;;;;;;1.42;1.00;;;21.00;22.70;;;;;;5094284;28;20632;-51
2020/12/06 07:51:52;;;;;;;1.20;1.10;;;21.00;22.60;;;;;;5093918;28;20166;-51
2020/12/06 07:54:18;;;;;;;2.00;1.20;;;21.00;22.60;;;;;;5094345;28;20240;-51
2020/12/06 07:56:49;;;;;;;1.17;1.07;;;21.00;22.60;;;;;;5094177;28;20164;-51
2020/12/06 07:59:21;;;;;;;1.40;1.30;;;21.10;23.20;;;;;;5094074;28;20173;-51
2020/12/06 08:01:49;;;;;;;1.33;1.23;;;21.10;22.60;;;;;;5059622;28;20220;-52
2020/12/06 08:04:36;;;;;;;1.60;1.50;;;21.10;22.50;;;;;;5094253;28;20278;-51
2020/12/06 08:07:26;;;;;;;1.20;1.10;;;21.10;22.50;;;;;;5094156;28;20592;-51
2020/12/06 08:09:52;;;;;;;1.38;1.27;;;21.20;22.50;;;;;;5093876;28;20188;-52
2020/12/06 08:12:21;;;;;;;1.40;1.17;;;21.20;22.50;;;;;;5094052;28;20158;-52
2020/12/06 08:14:46;;;;;;;1.30;1.20;;;21.20;22.50;;;;;;5093757;28;20532;-52
2020/12/06 08:17:12;;;;;;;1.13;1.03;;;21.20;22.40;;;;;;5093989;28;20162;-54
2020/12/06 08:19:41;;;;;;;1.70;1.30;;;21.30;22.40;;;;;;5093177;28;20187;-52
2020/12/06 08:22:07;;;;;;;1.05;0.98;;;21.30;22.40;;;;;;5093926;28;20150;-52
2020/12/06 08:24:33;;;;;;;1.40;1.30;;;21.30;22.40;;;;;;5093895;28;20142;-53
2020/12/06 08:27:00;;;;;;;1.23;1.13;;;21.30;22.30;;;;;;5093680;28;20886;-52
2020/12/06 08:29:41;;;;;;;1.45;1.35;;;21.30;22.30;;;;;;5093921;28;20407;-52
2020/12/06 08:32:06;;;;;;;1.50;1.40;;;21.40;22.30;;;;;;5094039;28;20160;-52
2020/12/06 08:34:33;;;;;;;1.30;1.20;;;21.40;22.20;;;;;;5093520;28;20158;-52
2020/12/06 08:37:16;;;;;;;0.98;0.88;;;21.40;22.20;;;;;;5093557;28;20157;-52
2020/12/06 08:39:42;;;;;;;1.02;0.93;;;21.50;22.20;;;;;;5079346;28;20197;-52
2020/12/06 08:42:20;;;;;;;1.55;1.45;;;21.50;22.20;;;;;;5098025;28;20164;-52
2020/12/06 08:45:00;;;;;;;1.13;1.02;;;21.50;22.20;;;;;;5097858;28;20150;-53
2020/12/06 08:47:39;;;;;;;1.17;1.08;;;21.50;22.10;;;;;;5097855;28;20199;-53
2020/12/06 08:50:11;;;;;;;1.20;1.10;;;21.50;22.10;;;;;;5079058;28;20189;-53
2020/12/06 08:52:37;;;;;;;1.50;1.08;;;21.60;22.10;;;;;;5097789;28;20181;-53
2020/12/06 08:55:26;;;;;;;1.42;1.02;;;21.60;22.00;;;;;;5097576;28;20554;-53
2020/12/06 08:57:54;;;;;;;1.60;1.50;;;21.60;22.00;;;;;;5097435;28;20182;-53
2020/12/06 09:00:19;;;;;;;1.10;1.00;;;21.60;22.00;;;;;;5097567;28;20180;-53
2020/12/06 09:02:45;;;;;;;1.37;1.27;;;21.60;22.00;;;;;;5097563;28;20189;-52
2020/12/06 09:05:11;;;;;;;1.40;1.30;;;;;;;;;;5096874;28;20219;-52
2020/12/06 09:07:42;;;;;;;1.23;1.13;;;21.70;21.50;;;;;;5097506;28;20504;-52
2020/12/06 09:10:08;;;;;;;1.10;1.00;;;21.70;22.00;;;;;;5097240;28;20154;-52
2020/12/06 09:12:37;;;;;;;0.93;0.93;;;21.70;21.90;;;;;;5097594;28;20154;-53
2020/12/06 09:15:07;;;;;;;1.08;0.98;;;21.70;21.90;;;;;;5097157;28;20154;-53
2020/12/06 09:17:36;;;;;;;1.20;1.10;;;21.70;21.90;;;;;;5079127;28;20162;-53
2020/12/06 09:20:02;;;;;;;1.25;1.15;;;21.80;21.90;;;;;;5078386;28;20614;-53
2020/12/06 09:22:28;;;;;;;1.20;1.10;;;21.80;21.90;;;;;;5097239;28;20157;-53
2020/12/06 09:24:53;;;;;;;1.23;1.13;;;21.80;21.90;;;;;;5078984;28;20404;-53
2020/12/06 09:27:19;;;;;;;1.23;1.13;;;21.80;21.90;;;;;;5097263;28;20200;-53
2020/12/06 09:29:45;;;;;;;1.20;1.10;;;21.80;21.90;;;;;;5096882;28;20158;-53
2020/12/06 09:32:10;;;;;;;1.10;1.00;;;21.80;21.90;;;;;;5097364;28;20176;-53
2020/12/06 09:34:36;;;;;;;1.10;1.00;;;21.80;21.90;;;;;;5096575;28;20248;-53
2020/12/06 09:37:02;;;;;;;1.23;1.13;;;21.80;21.90;;;;;;5097052;28;20580;-53
2020/12/06 09:39:27;;;;;;;1.40;1.30;;;21.80;21.90;;;;;;5096523;28;20200;-53
2020/12/06 09:41:53;;;;;;;1.40;1.30;;;21.80;21.90;;;;;;5079083;28;20154;-53
2020/12/06 09:44:19;;;;;;;1.30;1.00;;;21.80;21.90;;;;;;5096825;28;20601;-53
2020/12/06 09:46:44;;;;;;;1.17;1.07;;;21.80;21.90;;;;;;5096810;28;20490;-53
2020/12/06 09:49:10;;;;;;;1.10;1.00;;;21.80;21.90;;;;;;5078759;28;20292;-53
2020/12/06 09:51:36;;;;;;;1.27;1.17;;;21.80;21.90;;;;;;5096196;28;20166;-54
2020/12/06 09:54:02;;;;;;;1.20;1.10;;;21.80;21.90;;;;;;5078811;28;20166;-54
2020/12/06 09:56:29;;;;;;;1.10;1.05;;;21.80;21.90;;;;;;5096567;28;20609;-53
2020/12/06 09:58:56;;;;;;;0.82;0.82;;;21.80;21.90;;;;;;5096399;28;20185;-53
2020/12/06 10:01:24;;;;;;;1.00;1.00;;;21.80;21.90;;;;;;5096247;28;20672;-53
2020/12/06 10:03:50;;;;;;;1.40;1.15;;;21.80;21.90;;;;;;5096452;28;20253;-53
2020/12/06 10:06:22;;;;;;;1.27;1.05;;;21.80;21.90;;;;;;5095927;28;20150;-53
2020/12/06 10:08:48;;;;;;;0.90;0.70;;;21.80;21.90;;;;;;5077827;28;20170;-53
2020/12/06 10:11:13;;;;;;;1.27;1.13;;;21.80;21.90;;;;;;5078192;28;20158;-53
2020/12/06 10:13:39;;;;;;;1.27;1.17;;;21.80;21.90;;;;;;5096242;28;20609;-52
2020/12/06 10:16:05;;;;;;;1.10;1.00;;;21.80;21.90;;;;;;5061172;28;20177;-52
2020/12/06 10:18:31;;;;;;;1.30;1.13;;;21.80;22.50;;;;;;5061318;28;20185;-52
2020/12/06 10:20:57;;;;;;;0.83;0.83;;;21.80;21.90;;;;;;5077146;28;20688;-52
2020/12/06 10:23:22;;;;;;;1.20;1.10;;;21.80;22.00;;;;;;5095943;28;20514;-53
2020/12/06 10:25:48;;;;;;;0.90;0.90;;;21.80;22.00;;;;;;5096065;28;20145;-53
2020/12/06 10:28:14;;;;;;;1.30;1.20;;;21.70;21.90;;;;;;5077818;28;20208;-53
2020/12/06 10:30:39;;;;;;;1.10;1.00;;;21.70;21.90;;;;;;5095944;28;20154;-52
2020/12/06 10:33:05;;;;;;;0.97;0.97;;;21.70;21.90;;;;;;5095855;28;20506;-53
2020/12/06 10:35:31;;;;;;;1.10;1.00;;;21.70;22.00;;;;;;5077093;28;20660;-55
2020/12/06 10:37:56;;;;;;;2.00;1.20;;;21.70;22.00;;;;;;5077690;28;20646;-54
2020/12/06 10:40:22;;;;;;;1.50;1.40;;;21.70;22.00;;;;;;5095526;28;20176;-52
2020/12/06 10:42:48;;;;;;;1.53;1.43;;;21.70;22.00;;;;;;5077806;28;20176;-52
2020/12/06 10:45:14;;;;;;;0.93;0.93;;;21.70;22.00;;;;;;5095383;28;20154;-52
2020/12/06 10:47:40;;;;;;;1.33;1.20;;;21.70;22.00;;;;;;5095523;28;20648;-53
2020/12/06 10:50:06;;;;;;;1.47;1.13;;;21.70;22.00;;;;;;5094767;28;20173;-52
2020/12/06 10:52:31;;;;;;;1.30;1.10;;;21.70;22.00;;;;;;5095504;28;20164;-52
2020/12/06 10:54:57;;;;;;;1.63;1.33;;;21.70;22.00;;;;;;5076995;28;20171;-54
2020/12/06 10:57:23;;;;;;;1.47;1.37;;;21.70;22.00;;;;;;5095419;28;20154;-53
2020/12/06 10:59:48;;;;;;;1.47;1.30;;;21.70;22.00;;;;;;5059976;28;20197;-53
2020/12/06 11:02:14;;;;;;;1.30;1.20;;;21.70;22.00;;;;;;5095065;28;20271;-53
2020/12/06 11:04:40;;;;;;;1.55;1.45;;;21.70;22.00;;;;;;5094631;28;20172;-53
2020/12/06 11:07:06;;;;;;;2.87;2.10;;;21.70;22.10;;;;;;5095115;28;20669;-52
2020/12/06 11:09:32;;;;;;;2.47;2.05;;;21.70;21.90;;;;;;5095144;28;20172;-53
2020/12/06 11:11:57;;;;;;;4.53;2.30;;;21.60;21.30;;;;;;5095164;28;20224;-54
2020/12/06 11:14:23;;;;;;;2.60;2.17;;;21.50;21.60;;;;;;5095049;28;20601;-53
2020/12/06 11:16:50;;;;;;;2.60;2.40;;;21.40;21.30;;;;;;5095026;28;20158;-52
2020/12/06 11:19:16;;;;;;;4.15;2.35;;;21.30;21.30;;;;;;5094881;28;20181;-54
2020/12/06 11:21:42;;;;;;;3.90;2.50;;;21.10;21.30;;;;;;5076494;28;20161;-53
2020/12/06 11:24:07;;;;;;;4.53;2.97;;;21.10;21.40;;;;;;5094831;28;20162;-52
2020/12/06 11:26:34;;;;;;;3.97;2.53;;;21.00;21.40;;;;;;5094621;28;20154;-52
2020/12/06 11:28:59;;;;;;;3.75;2.60;;;20.90;21.50;;;;;;5095040;28;20166;-52
2020/12/06 11:31:25;;;;;;;4.10;2.20;;;20.90;21.80;;;;;;5094797;28;20597;-52
2020/12/06 11:33:51;;;;;;;7.63;2.90;;;20.90;21.90;;;;;;5094713;28;20162;-51
2020/12/06 11:36:16;;;;;;;5.03;2.70;;;20.90;21.90;;;;;;5094008;28;20609;-54
2020/12/06 11:38:43;;;;;;;2.70;2.20;;;20.90;21.90;;;;;;5076248;28;20708;-53
2020/12/06 11:41:09;;;;;;;3.10;2.15;;;20.90;21.90;;;;;;5094426;28;20154;-52
2020/12/06 11:43:37;;;;;;;7.03;2.77;;;21.00;21.90;;;;;;5076673;28;20162;-52
2020/12/06 11:46:03;;;;;;;3.03;2.25;;;21.00;21.90;;;;;;5094303;28;20157;-53
2020/12/06 11:48:29;;;;;;;3.80;2.30;;;21.00;21.80;;;;;;5094913;28;20162;-52
2020/12/06 11:50:54;;;;;;;7.00;2.60;;;21.10;21.80;;;;;;5075421;28;20506;-53
2020/12/06 11:53:20;;;;;;;3.80;2.90;;;21.10;21.80;;;;;;5076235;28;20173;-54
2020/12/06 11:55:46;;;;;;;3.93;2.20;;;21.10;21.70;;;;;;5059441;28;20158;-53
2020/12/06 11:58:11;;;;;;;3.20;2.00;;;21.10;21.70;;;;;;5094181;28;20189;-53
2020/12/06 12:00:37;;;;;;;5.20;2.40;;;21.20;21.80;;;;;;5093604;28;20217;-53
2020/12/06 12:03:03;;;;;;;3.30;2.17;;;21.20;21.80;;;;;;5094178;28;20167;-52
2020/12/06 12:05:28;;;;;;;3.00;2.37;;;21.20;21.70;;;;;;5093330;28;20181;-53
2020/12/06 12:07:54;;;;;;;3.03;2.20;;;21.20;21.70;;;;;;5093963;28;20193;-53
2020/12/06 12:10:20;;;;;;;2.13;1.90;;;21.20;21.70;;;;;;5093923;28;20211;-52
2020/12/06 12:12:47;;;;;;;3.70;2.50;;;21.20;21.70;;;;;;5058357;28;20170;-53
2020/12/06 12:15:13;;;;;;;2.15;1.90;;;21.30;21.80;;;;;;5093863;28;20171;-53
2020/12/06 12:17:39;;;;;;;4.28;2.20;;;21.20;21.70;;;;;;5093836;28;20199;-53
2020/12/06 12:20:06;;;;;;;3.07;2.07;;;21.20;21.70;;;;;;5093115;28;20150;-53
2020/12/06 12:22:32;;;;;;;2.90;1.92;;;21.20;21.70;;;;;;5093901;28;20142;-53
2020/12/06 12:24:58;;;;;;;2.87;2.23;;;21.20;21.70;;;;;;5093755;28;20169;-53
2020/12/06 12:27:24;;;;;;;4.20;2.20;;;21.20;21.70;;;;;;5093749;28;20935;-53
2020/12/06 12:29:49;;;;;;;2.83;1.90;;;21.30;21.80;;;;;;5094039;28;20628;-52
2020/12/06 12:32:15;;;;;;;2.10;1.80;;;21.30;21.80;;;;;;5093803;28;20628;-53
2020/12/06 12:34:41;;;;;;;2.00;1.77;;;21.20;21.70;;;;;;5075107;28;20169;-53
2020/12/06 12:37:07;;;;;;;2.27;2.07;;;21.20;21.70;;;;;;5075724;28;20193;-54
2020/12/06 12:39:33;;;;;;;3.03;2.20;;;21.30;21.80;;;;;;5093359;28;20461;-53
2020/12/06 12:41:59;;;;;;;2.70;2.10;;;21.20;21.70;;;;;;5093596;28;20166;-52
2020/12/06 12:44:27;;;;;;;3.20;2.27;;;21.30;21.80;;;;;;5093579;28;20207;-52
2020/12/06 12:46:59;;;;;;;3.15;2.55;;;21.30;21.80;;;;;;5093360;28;20406;-52